Historyczne dane pomiarowe

Dodano dane terminowe – wersja testowa.

Dane z okresu 1951-2019

Wersja bazy: 1.34 [2019-03-16, lista zmian], aktualizacja planowana na 2019-04-15

Dane meteo z obszaru Polski uzyskane na podstawie danych udostępnionych przez Instytut Meteorologii i Gospodarki Wodnej – Państwowy Instytut Badawczy.

 

Wybierz Datę:    

       

TemperaturaWilgotnośćWiatrCiśnienieOpadyŚniegCzas trwania zjawisk
 Stacja t tx tn tng RH VA  wxwx mslp ppp RRR   cm mm wxwxwxwxwxwxwx
1979-01-17 -5.6 -4.7 -8.9-10.8 88.5- 8.0 6.0---- 0.0-- 37---------
1979-01-18 -5.4 -4.6 -5.8 -6.0 90.3- 8.0 2.7---- 0.0-- 37---------
1979-01-19 -8.0 -5.2-12.9-21.4 85.5- 5.3 3.0---- 0.0-- 37---------
1979-01-20-11.6 -9.4-14.2-14.3 84.8- 2.7 3.7---- 0.0-- 37---------
1979-01-21-14.3-11.4-17.0-20.9 84.3- 2.7 5.3---- 0.0-- 37---------
1979-01-22-11.7 -9.9-14.7-14.9 87.3- 8.0 6.0---- 0.0-- 37---------
1979-01-23 -9.0 -7.3-12.8-14.8 86.5- 8.0 3.7---- 0.3-- 36---------
1979-01-24 -7.8 -2.8-12.8-11.8 90.0- 8.0 5.7---- 0.0-- 37---------
1979-01-25 -4.7 -0.5 -9.0-11.3 87.5- 8.0 7.0---- 0.0-- 37---------
1979-01-26 -7.6 -3.0-12.3-19.8 89.0- 8.0 6.3---- 0.0-- 37---------
1979-01-27 -3.6 -1.2 -6.2 -9.8 84.8- 8.0 5.3---- 0.0-- 37---------
1979-01-28 -3.3 -1.6 -6.1 -7.4 94.3- 8.0 5.3---- 2.1-- 37---------
1979-01-29 -4.8 -2.6 -6.7 -7.8 85.5- 7.7 5.7---- 9.7-- 40---------
1979-01-30 -3.2 -1.2 -6.7 -4.8 95.3- 8.0 14.7---- 30.3-- 54---------
1979-01-31 -5.0 -1.7 -5.7 -4.9 90.0- 8.0 18.0---- 7.8-- 70---------
1979-02-01 -3.8 -0.3 -7.4 -6.0 88.3- 8.0 6.0---- 1.0-- 75---------
1979-02-02 -0.9 0.4 -2.4 -2.3 93.5- 8.0 10.0---- 6.6-- 76---------
1979-02-03 -2.0 0.1 -3.4 -3.9 90.3- 7.7 10.3---- 0.4-- 81---------
1979-02-04 -2.8 -1.1 -3.8 -5.5 84.3- 6.7 13.3------- 84---------
1979-02-05 -7.1 -2.2-11.5-14.8 86.8- 6.0 2.7---- 0.0-- 90---------
1979-02-06 -7.4 -2.9-13.4-12.8 90.3- 8.0 3.7---- 5.7-- 90---------
1979-02-07 -3.8 -1.4 -5.1 -6.0 85.3- 7.7 2.0---- 2.1-- 92---------
1979-02-08 -5.7 -2.4 -9.2 -9.0 80.5- 7.3 13.0------- 93---------
1979-02-09 -3.9 -2.4 -4.6 -6.5 89.0- 8.0 14.0---- 1.9-- 95---------
1979-02-10 -4.4 -1.8 -6.7 -7.9 85.0- 3.3 7.0---- 0.1-- 96---------
1979-02-11 -5.4 -1.7-10.2-10.5 83.0- 4.3 8.0---- 0.5-- 96---------
1979-02-12-12.5 -5.9-20.3-18.8 82.5- 6.7 3.3---- 0.0-- 96---------
1979-02-13 -7.6 -4.9 -9.6-11.0 79.5- 6.0 5.7---- 0.0-- 95---------
1979-02-14-17.2 -8.8-20.1-21.8 80.5- 8.0 8.3------- 93---------
1979-02-15-15.3-12.8-18.0-18.8 77.5- 8.0 14.0------- 96---------
175.7 ms

 

Źródłem pochodzenia danych jest Instytut Meteorologii i Gospodarki Wodnej – Państwowy Instytut Badawczy. Dane Instytutu Meteorologii i Gospodarki Wodnej – Państwowego Instytutu Badawczego zostały przetworzone.

Dane źródłowe można odnaleźć na stronie https://dane.imgw.pl